Time;durP1;ratioP1;P1;durP2;ratioP2;P2;SDS_P1;SDS_P2;PMS_P1;PMS_P2;Temp;Humidity;BMP_temperature;BMP_pressure;BME280_temperature;BME280_humidity;BME280_pressure;Samples;Min_cycle;Max_cycle;Signal;HPM_P1;HPM_P2
2023/07/28 00:00:44;;;;;;;1.67;1.20;;;24.70;78.60;;;;;;10944364;32;20325;-73
2023/07/28 00:06:46;;;;;;;5.80;1.50;;;24.60;78.50;;;;;;10944131;32;20027;-73
2023/07/28 00:12:48;;;;;;;1.48;1.05;;;24.60;78.70;;;;;;10942921;32;20034;-73
2023/07/28 00:18:49;;;;;;;2.87;1.20;;;24.50;78.80;;;;;;10943357;32;20396;-73
2023/07/28 00:24:51;;;;;;;2.15;1.42;;;24.40;78.90;;;;;;11018857;32;20022;-73
2023/07/28 00:30:53;;;;;;;1.67;0.93;;;24.40;79.30;;;;;;11014820;32;20022;-73
2023/07/28 00:36:55;;;;;;;2.25;1.48;;;24.40;79.20;;;;;;11005195;32;20018;-73
2023/07/28 00:42:57;;;;;;;3.15;1.77;;;24.40;79.70;;;;;;11018627;32;20335;-73
2023/07/28 00:49:01;;;;;;;2.12;1.25;;;24.40;79.90;;;;;;11018483;32;20045;-73
2023/07/28 00:55:03;;;;;;;12.27;1.55;;;24.40;79.80;;;;;;11018349;32;20348;-73
2023/07/28 01:01:05;;;;;;;1.12;0.80;;;24.30;80.50;;;;;;11003961;32;20286;-73
2023/07/28 01:07:12;;;;;;;1.80;1.12;;;24.30;80.80;;;;;;11017884;32;20388;-73
2023/07/28 01:13:14;;;;;;;2.75;0.90;;;24.30;80.50;;;;;;11017770;32;20410;-73
2023/07/28 01:19:21;;;;;;;1.62;1.30;;;24.30;80.20;;;;;;11017650;32;20022;-73
2023/07/28 01:25:41;;;;;;;2.03;1.25;;;24.30;80.30;;;;;;11003983;32;20049;-73
2023/07/28 01:31:47;;;;;;;1.83;1.05;;;24.20;80.10;;;;;;11005837;32;20033;-73
2023/07/28 01:37:52;;;;;;;2.55;1.30;;;24.10;80.10;;;;;;11025208;32;20081;-73
2023/07/28 01:43:55;;;;;;;1.62;1.30;;;24.10;79.70;;;;;;11025045;32;20069;-73
2023/07/28 01:49:57;;;;;;;3.20;1.65;;;24.00;79.40;;;;;;11010928;32;20034;-73
2023/07/28 01:56:00;;;;;;;2.08;1.42;;;24.00;79.10;;;;;;11020940;32;20060;-73
2023/07/28 02:02:02;;;;;;;2.15;1.50;;;23.90;79.30;;;;;;11023666;32;20340;-73
2023/07/28 02:08:04;;;;;;;2.65;1.40;;;23.80;79.60;;;;;;11024112;32;20500;-73
2023/07/28 02:14:06;;;;;;;1.90;1.20;;;23.70;79.50;;;;;;11023905;32;20010;-73
2023/07/28 02:20:12;;;;;;;1.58;1.02;;;23.70;79.50;;;;;;11009598;32;20470;-73
2023/07/28 02:26:14;;;;;;;2.55;1.10;;;23.60;79.70;;;;;;11023571;32;20018;-73
2023/07/28 02:32:16;;;;;;;3.45;1.70;;;23.60;79.50;;;;;;11003330;32;20041;-73
2023/07/28 02:38:19;;;;;;;3.08;1.40;;;23.70;79.50;;;;;;11023265;32;20053;-73
2023/07/28 02:44:21;;;;;;;3.72;1.60;;;23.50;79.60;;;;;;11021961;32;20048;-73
2023/07/28 02:50:23;;;;;;;3.28;2.00;;;23.40;79.80;;;;;;11004434;32;20042;-73
2023/07/28 02:56:25;;;;;;;4.03;2.25;;;23.40;79.70;;;;;;10995653;32;20026;-73
2023/07/28 03:02:27;;;;;;;3.17;1.92;;;23.50;79.30;;;;;;11018649;32;20045;-73
2023/07/28 03:08:30;;;;;;;3.72;1.80;;;23.50;79.30;;;;;;11022070;32;20070;-73
2023/07/28 03:14:33;;;;;;;2.65;1.58;;;23.30;79.50;;;;;;11021862;32;20019;-73
2023/07/28 03:20:35;;;;;;;2.80;1.27;;;23.30;79.70;;;;;;10995340;32;20033;-73
2023/07/28 03:26:37;;;;;;;3.55;1.83;;;23.30;79.70;;;;;;11021356;32;20045;-73
2023/07/28 03:32:39;;;;;;;2.08;1.55;;;23.30;79.50;;;;;;11021208;32;20050;-73
2023/07/28 03:38:41;;;;;;;3.08;1.87;;;23.30;79.30;;;;;;11021053;32;20041;-73
2023/07/28 03:44:44;;;;;;;4.28;2.25;;;23.30;79.60;;;;;;11018423;32;20030;-73
2023/07/28 03:50:46;;;;;;;2.65;1.58;;;23.20;79.70;;;;;;11020467;32;20045;-73
2023/07/28 03:56:48;;;;;;;2.87;2.37;;;23.20;79.60;;;;;;11017786;32;20344;-73
2023/07/28 04:02:50;;;;;;;2.75;1.85;;;23.20;79.60;;;;;;11020064;32;20018;-73
2023/07/28 04:08:52;;;;;;;4.00;1.60;;;23.20;79.70;;;;;;11003937;32;20030;-73
2023/07/28 04:14:54;;;;;;;2.28;1.58;;;23.10;79.70;;;;;;11019627;32;20037;-73
2023/07/28 04:20:56;;;;;;;2.58;1.73;;;23.10;79.80;;;;;;11019274;32;20010;-73
2023/07/28 04:26:58;;;;;;;2.65;1.27;;;23.10;80.20;;;;;;11019071;32;20103;-73
2023/07/28 04:33:01;;;;;;;2.50;1.62;;;23.10;80.20;;;;;;11003963;32;20363;-73
2023/07/28 04:39:05;;;;;;;4.03;1.60;;;23.20;80.20;;;;;;11018636;32;20015;-74
2023/07/28 04:45:08;;;;;;;1.90;1.15;;;23.10;80.30;;;;;;11002250;32;20014;-74
2023/07/28 04:51:11;;;;;;;4.53;1.30;;;23.10;80.60;;;;;;11016599;32;20040;-74
2023/07/28 04:57:14;;;;;;;6.80;1.75;;;23.10;80.90;;;;;;11018210;32;20323;-74
2023/07/28 05:03:16;;;;;;;1.90;1.25;;;23.20;80.80;;;;;;11018083;32;20037;-74
2023/07/28 05:09:19;;;;;;;1.35;0.88;;;23.20;81.50;;;;;;11003189;32;20077;-73
2023/07/28 05:15:23;;;;;;;2.70;1.10;;;23.30;81.90;;;;;;11018506;26;20371;-74
2023/07/28 05:21:25;;;;;;;3.58;1.67;;;23.20;82.00;;;;;;11017542;32;20022;-74
2023/07/28 05:27:27;;;;;;;2.58;1.42;;;23.30;82.20;;;;;;11017367;32;20034;-74
2023/07/28 05:33:29;;;;;;;3.83;1.80;;;23.40;82.10;;;;;;10990833;32;20088;-74
2023/07/28 05:39:32;;;;;;;5.22;2.30;;;23.60;82.10;;;;;;11003066;32;20035;-75
2023/07/28 05:45:34;;;;;;;2.50;1.62;;;23.50;82.20;;;;;;11003081;32;20052;-74
2023/07/28 05:51:36;;;;;;;3.10;1.40;;;23.60;82.30;;;;;;11003542;32;20344;-74
2023/07/28 05:57:38;;;;;;;2.67;1.50;;;23.70;82.20;;;;;;11016905;32;20015;-74
2023/07/28 06:03:41;;;;;;;2.58;1.10;;;23.80;82.10;;;;;;11016604;32;20041;-73
2023/07/28 06:09:43;;;;;;;1.62;0.85;;;23.80;82.20;;;;;;11003457;32;20064;-74
2023/07/28 06:15:46;;;;;;;4.75;1.35;;;23.80;82.40;;;;;;11002422;32;20030;-74
2023/07/28 06:21:49;;;;;;;2.50;1.37;;;23.90;82.60;;;;;;11022518;32;20045;-72
2023/07/28 06:27:50;;;;;;;3.28;1.70;;;24.00;82.30;;;;;;11009126;32;20370;-73
2023/07/28 06:33:53;;;;;;;3.97;1.85;;;24.00;82.70;;;;;;11009278;32;20290;-74
2023/07/28 06:39:55;;;;;;;2.95;1.75;;;24.10;82.80;;;;;;11009415;32;20056;-73
2023/07/28 06:45:57;;;;;;;3.25;1.77;;;24.10;83.20;;;;;;11005984;32;20400;-74
2023/07/28 06:52:00;;;;;;;4.07;2.15;;;24.10;83.30;;;;;;11022699;32;20053;-72
2023/07/28 06:58:02;;;;;;;3.05;1.85;;;24.30;83.20;;;;;;11008657;32;20056;-74
2023/07/28 07:04:26;;;;;;;2.62;1.17;;;24.50;82.80;;;;;;11004594;32;20030;-74
2023/07/28 07:10:28;;;;;;;1.10;0.98;;;24.60;82.30;;;;;;11022189;32;20064;-74
2023/07/28 07:16:31;;;;;;;1.37;1.08;;;24.60;82.50;;;;;;11018857;32;20049;-74
2023/07/28 07:22:34;;;;;;;4.78;1.12;;;24.60;82.50;;;;;;11021796;32;20014;-73
2023/07/28 07:28:37;;;;;;;3.95;1.33;;;24.80;82.60;;;;;;11016845;32;20041;-73
2023/07/28 07:34:39;;;;;;;2.37;1.40;;;24.90;82.50;;;;;;11007188;32;20061;-73
2023/07/28 07:40:42;;;;;;;2.87;1.42;;;25.00;82.00;;;;;;11007214;32;20398;-73
2023/07/28 07:46:44;;;;;;;1.65;1.35;;;25.00;82.10;;;;;;11020694;32;20026;-73
2023/07/28 07:52:46;;;;;;;2.67;1.48;;;25.20;81.70;;;;;;11006474;32;20038;-73
2023/07/28 07:58:48;;;;;;;1.20;0.98;;;25.20;81.50;;;;;;11016100;32;20388;-73
2023/07/28 08:04:51;;;;;;;3.50;1.40;;;25.30;81.20;;;;;;11019911;32;20073;-74
2023/07/28 08:10:54;;;;;;;2.80;1.40;;;25.50;81.20;;;;;;11019469;32;20052;-73
2023/07/28 08:16:56;;;;;;;1.48;1.00;;;25.60;81.00;;;;;;11019514;32;20022;-74
2023/07/28 08:22:58;;;;;;;3.50;1.40;;;25.80;80.20;;;;;;11004330;32;20446;-74
2023/07/28 08:29:00;;;;;;;2.20;1.05;;;25.60;80.40;;;;;;11019195;32;20080;-74
2023/07/28 08:35:03;;;;;;;1.37;1.27;;;25.60;80.20;;;;;;11019029;32;20032;-73
2023/07/28 08:41:20;;;;;;;3.15;1.65;;;25.80;80.20;;;;;;11018175;32;20034;-72
2023/07/28 08:47:22;;;;;;;3.10;1.50;;;25.90;79.30;;;;;;11018658;32;20015;-72
2023/07/28 08:53:25;;;;;;;2.10;1.52;;;26.00;78.50;;;;;;11018273;32;20002;-73
2023/07/28 08:59:29;;;;;;;1.98;1.45;;;26.10;78.00;;;;;;11018332;32;20014;-73
2023/07/28 09:05:33;;;;;;;3.60;1.67;;;26.10;76.40;;;;;;11018022;32;20348;-73
2023/07/28 09:11:44;;;;;;;1.73;1.05;;;26.30;76.60;;;;;;11003786;32;20422;-73
2023/07/28 09:17:46;;;;;;;3.40;1.55;;;26.30;77.00;;;;;;11017732;32;20033;-73
2023/07/28 09:23:48;;;;;;;0.88;0.77;;;26.40;76.20;;;;;;11017643;32;20014;-73
2023/07/28 09:29:54;;;;;;;2.03;1.08;;;26.60;75.90;;;;;;11017400;32;20387;-73
2023/07/28 09:35:57;;;;;;;1.52;0.95;;;26.60;74.70;;;;;;11017475;32;20018;-74
2023/07/28 09:42:02;;;;;;;2.12;1.35;;;26.80;75.30;;;;;;11017286;32;20025;-72
2023/07/28 09:48:09;;;;;;;1.58;0.93;;;26.90;74.60;;;;;;11017197;32;20022;-73
2023/07/28 09:54:27;;;;;;;1.25;0.80;;;26.90;73.20;;;;;;11020740;32;20400;-73
2023/07/28 10:00:29;;;;;;;2.95;1.12;;;27.10;73.60;;;;;;11024458;32;20019;-74
2023/07/28 10:06:33;;;;;;;1.50;0.93;;;27.20;73.80;;;;;;10997467;32;20031;-74
2023/07/28 10:13:13;;;;;;;1.48;0.70;;;27.30;73.70;;;;;;11010293;32;20388;-72
2023/07/28 10:19:20;;;;;;;3.08;1.10;;;27.50;74.20;;;;;;11023973;32;20018;-72
2023/07/28 10:25:25;;;;;;;2.20;1.40;;;27.60;74.40;;;;;;11023598;32;20320;-73
2023/07/28 10:31:31;;;;;;;2.83;0.73;;;27.40;74.20;;;;;;11023231;32;20014;-75
2023/07/28 10:37:35;;;;;;;3.85;1.17;;;27.60;72.40;;;;;;11023454;32;20021;-73
2023/07/28 10:43:40;;;;;;;2.65;1.05;;;27.80;71.60;;;;;;11023077;32;20037;-75
2023/07/28 10:49:47;;;;;;;1.42;0.93;;;27.90;70.70;;;;;;11022604;32;20049;-75
2023/07/28 10:55:53;;;;;;;1.67;1.10;;;28.00;69.50;;;;;;11022665;32;20355;-74
2023/07/28 11:01:56;;;;;;;1.80;0.88;;;28.00;69.00;;;;;;11022552;32;20561;-75
2023/07/28 11:08:00;;;;;;;3.05;1.60;;;28.10;68.30;;;;;;11017643;32;20044;-74
2023/07/28 11:14:05;;;;;;;2.40;1.15;;;28.40;67.30;;;;;;11022133;32;20018;-75
2023/07/28 11:20:22;;;;;;;2.47;1.52;;;28.50;67.10;;;;;;11018295;32;20018;-74
2023/07/28 11:26:24;;;;;;;3.50;1.27;;;28.80;65.70;;;;;;11007753;32;20053;-74
2023/07/28 11:32:26;;;;;;;3.05;1.25;;;28.80;65.30;;;;;;11021218;32;20323;-74
2023/07/28 11:38:29;;;;;;;2.47;1.20;;;29.10;64.60;;;;;;11020059;32;20019;-73
2023/07/28 11:44:31;;;;;;;1.35;0.93;;;29.40;64.30;;;;;;11020908;32;20298;-74
2023/07/28 11:50:56;;;;;;;3.28;1.52;;;29.40;63.80;;;;;;11020593;32;20021;-74
2023/07/28 11:56:59;;;;;;;5.72;1.58;;;29.40;63.00;;;;;;11020415;32;20053;-73
2023/07/28 12:03:10;;;;;;;2.03;1.37;;;29.50;62.10;;;;;;11016069;32;20434;-73
2023/07/28 12:09:13;;;;;;;4.10;1.02;;;29.70;60.90;;;;;;11019976;32;20037;-73
2023/07/28 12:15:27;;;;;;;1.77;1.00;;;29.80;59.90;;;;;;11005689;32;20026;-73
2023/07/28 12:21:30;;;;;;;3.28;1.42;;;29.80;59.60;;;;;;11019518;32;20025;-72
2023/07/28 12:27:34;;;;;;;4.65;2.62;;;30.10;59.40;;;;;;11019188;32;20060;-72
2023/07/28 12:33:38;;;;;;;2.53;1.50;;;30.10;58.90;;;;;;11019025;32;20015;-73
2023/07/28 12:39:40;;;;;;;2.97;1.67;;;29.60;59.60;;;;;;11018944;32;20382;-73
2023/07/28 12:45:42;;;;;;;2.47;1.33;;;29.30;59.30;;;;;;11018683;32;20015;-72
2023/07/28 12:51:45;;;;;;;3.05;1.60;;;29.30;59.10;;;;;;11018409;32;20359;-72
2023/07/28 12:57:48;;;;;;;1.60;1.35;;;29.60;58.30;;;;;;11018269;32;20037;-73
2023/07/28 13:03:50;;;;;;;2.58;1.67;;;29.60;58.20;;;;;;11017977;32;20092;-73
2023/07/28 13:09:53;;;;;;;5.37;1.83;;;29.80;58.20;;;;;;11017865;32;20041;-73
2023/07/28 13:15:55;;;;;;;2.35;1.25;;;29.90;57.70;;;;;;10922959;26;20062;-72
2023/07/28 13:21:57;;;;;;;2.67;1.65;;;30.00;57.10;;;;;;10904351;32;20019;-73
2023/07/28 13:28:00;;;;;;;1.45;1.08;;;30.20;56.50;;;;;;10903861;32;20049;-73
2023/07/28 13:34:02;;;;;;;1.98;1.17;;;30.30;56.30;;;;;;10904052;32;20357;-73
2023/07/28 13:40:05;;;;;;;2.45;1.58;;;30.30;56.70;;;;;;10903950;32;20038;-73
2023/07/28 13:46:08;;;;;;;3.40;1.17;;;30.20;57.30;;;;;;10903837;32;20070;-73
2023/07/28 13:52:10;;;;;;;2.42;1.37;;;30.20;57.00;;;;;;10890396;32;20023;-73
2023/07/28 13:58:12;;;;;;;0.88;0.80;;;30.20;57.30;;;;;;10889537;32;20074;-73
2023/07/28 14:04:14;;;;;;;2.25;1.27;;;30.20;57.10;;;;;;10903701;32;20054;-73
2023/07/28 14:10:17;;;;;;;1.95;1.20;;;30.30;56.80;;;;;;10903495;32;20028;-74
2023/07/28 14:16:19;;;;;;;2.12;1.12;;;30.30;55.90;;;;;;10903241;32;20019;-73
2023/07/28 14:22:22;;;;;;;3.47;1.20;;;30.20;56.60;;;;;;10901287;32;20039;-73
2023/07/28 14:28:24;;;;;;;1.83;0.93;;;30.10;58.30;;;;;;10903141;32;20062;-73
2023/07/28 14:34:26;;;;;;;3.12;1.48;;;29.90;58.60;;;;;;10903036;32;20024;-72
2023/07/28 14:40:28;;;;;;;3.20;1.42;;;30.00;58.50;;;;;;10905473;32;20007;-72
2023/07/28 14:46:30;;;;;;;2.95;1.37;;;30.10;57.20;;;;;;10909556;32;20020;-72
2023/07/28 14:52:32;;;;;;;5.18;2.45;;;30.20;56.80;;;;;;10905222;32;20038;-73
2023/07/28 14:58:34;;;;;;;4.20;2.28;;;30.30;57.20;;;;;;10909066;32;20310;-73
2023/07/28 15:04:37;;;;;;;2.20;1.20;;;30.30;56.70;;;;;;10894847;32;20053;-72
2023/07/28 15:10:39;;;;;;;2.67;1.30;;;30.10;56.70;;;;;;10908572;32;20417;-74
2023/07/28 15:16:41;;;;;;;1.48;1.08;;;30.00;57.20;;;;;;10908407;32;20058;-73
2023/07/28 15:22:43;;;;;;;1.70;1.05;;;29.90;57.70;;;;;;10908318;32;20023;-73
2023/07/28 15:28:45;;;;;;;3.50;1.10;;;29.90;58.00;;;;;;10908048;32;20035;-73
2023/07/28 15:34:47;;;;;;;1.58;0.95;;;29.90;58.30;;;;;;10907898;32;20057;-73
2023/07/28 15:40:49;;;;;;;0.82;0.60;;;29.90;58.60;;;;;;10894212;32;20020;-73
2023/07/28 15:46:52;;;;;;;1.75;0.80;;;29.90;58.60;;;;;;10889576;32;20043;-73
2023/07/28 15:52:54;;;;;;;4.03;1.48;;;29.90;59.90;;;;;;10893464;32;20046;-73
2023/07/28 15:58:57;;;;;;;8.82;1.60;;;29.80;59.90;;;;;;10892613;32;20036;-73
2023/07/28 16:04:59;;;;;;;1.83;1.17;;;29.80;61.40;;;;;;10894120;32;20023;-73
2023/07/28 16:11:01;;;;;;;4.05;1.52;;;29.70;63.70;;;;;;10905483;32;20108;-74
2023/07/28 16:17:03;;;;;;;3.75;1.10;;;29.60;66.70;;;;;;10879753;32;20333;-73
2023/07/28 16:23:05;;;;;;;1.75;1.20;;;29.40;66.00;;;;;;10892355;32;20157;-75
2023/07/28 16:29:07;;;;;;;2.65;1.40;;;29.40;65.60;;;;;;10891893;32;20039;-75
2023/07/28 16:35:09;;;;;;;1.70;1.05;;;29.50;65.80;;;;;;10905554;32;20027;-74
2023/07/28 16:41:11;;;;;;;4.62;1.27;;;29.70;66.30;;;;;;10891911;32;20089;-74
2023/07/28 16:47:16;;;;;;;3.85;1.00;;;29.80;65.40;;;;;;10904089;32;20032;-75
2023/07/28 16:53:20;;;;;;;2.08;1.17;;;29.80;65.90;;;;;;10855909;32;20062;-74
2023/07/28 16:59:22;;;;;;;1.85;1.00;;;29.80;65.40;;;;;;10853842;32;20054;-73
2023/07/28 17:05:25;;;;;;;2.62;1.27;;;29.80;65.10;;;;;;10853523;32;20046;-73
2023/07/28 17:11:27;;;;;;;2.30;1.25;;;29.80;66.20;;;;;;10867241;32;20448;-73
2023/07/28 17:17:29;;;;;;;2.17;0.93;;;29.70;66.30;;;;;;10867072;32;20019;-73
2023/07/28 17:23:31;;;;;;;1.80;1.15;;;29.70;65.90;;;;;;10867071;32;20051;-73
2023/07/28 17:29:33;;;;;;;4.57;1.65;;;29.50;66.20;;;;;;10853556;32;20046;-73
2023/07/28 17:35:35;;;;;;;2.80;1.33;;;29.40;66.80;;;;;;10866751;32;20046;-73
2023/07/28 17:41:37;;;;;;;2.05;1.33;;;29.30;66.90;;;;;;10853037;32;20036;-73
2023/07/28 17:47:39;;;;;;;2.40;1.20;;;29.30;68.10;;;;;;10849791;32;20111;-73
2023/07/28 17:53:41;;;;;;;5.10;1.55;;;29.20;68.80;;;;;;10853371;32;20070;-73
2023/07/28 17:59:43;;;;;;;2.22;1.12;;;29.20;68.90;;;;;;10866396;32;20435;-73
2023/07/28 18:05:45;;;;;;;1.08;0.57;;;29.20;69.30;;;;;;10866356;32;20397;-73
2023/07/28 18:11:47;;;;;;;6.65;1.37;;;29.10;69.90;;;;;;10866089;32;20035;-73
2023/07/28 18:17:49;;;;;;;1.58;1.15;;;29.00;70.30;;;;;;10859566;32;20050;-73
2023/07/28 18:23:51;;;;;;;1.67;1.12;;;28.90;71.00;;;;;;10873145;32;20483;-73
2023/07/28 18:29:53;;;;;;;3.50;1.27;;;28.80;71.10;;;;;;10872534;32;20040;-73
2023/07/28 18:35:56;;;;;;;3.53;1.12;;;28.60;71.80;;;;;;10872596;32;20341;-75
2023/07/28 18:41:58;;;;;;;4.72;2.28;;;28.40;72.70;;;;;;10872069;32;20057;-75
2023/07/28 18:48:00;;;;;;;2.58;1.37;;;28.30;73.10;;;;;;10871859;32;20050;-75
2023/07/28 18:54:02;;;;;;;3.17;0.52;;;28.30;73.30;;;;;;10871867;32;20047;-75
2023/07/28 19:00:06;;;;;;;1.42;0.93;;;28.30;73.30;;;;;;10871810;32;20032;-76
2023/07/28 19:06:08;;;;;;;1.02;0.77;;;28.30;73.20;;;;;;10858231;32;20318;-75
2023/07/28 19:12:11;;;;;;;1.98;1.20;;;28.30;73.20;;;;;;10871369;32;20456;-75
2023/07/28 19:18:13;;;;;;;3.95;1.70;;;28.30;73.30;;;;;;10857231;32;20050;-75
2023/07/28 19:24:15;;;;;;;1.23;0.80;;;28.20;73.50;;;;;;10870305;32;20315;-75
2023/07/28 19:30:17;;;;;;;1.70;0.82;;;28.20;73.50;;;;;;10870656;32;20046;-75
2023/07/28 19:36:20;;;;;;;1.92;1.20;;;28.10;73.60;;;;;;10856826;32;20358;-75
2023/07/28 19:42:22;;;;;;;2.35;1.00;;;28.10;73.70;;;;;;10870505;32;20078;-75
2023/07/28 19:48:24;;;;;;;1.52;0.75;;;28.10;73.80;;;;;;10870154;32;20504;-75
2023/07/28 19:54:29;;;;;;;1.45;0.68;;;28.10;73.90;;;;;;10870061;32;20042;-76
2023/07/28 20:00:31;;;;;;;2.40;1.12;;;28.00;74.10;;;;;;10869758;32;20031;-75
2023/07/28 20:06:35;;;;;;;1.00;0.73;;;27.90;74.30;;;;;;10869481;32;20016;-73
2023/07/28 20:12:37;;;;;;;3.33;0.88;;;27.90;74.40;;;;;;10869240;32;20028;-73
2023/07/28 20:18:42;;;;;;;1.83;1.00;;;27.90;74.90;;;;;;10869125;32;20390;-73
2023/07/28 20:24:45;;;;;;;1.05;0.95;;;27.90;75.10;;;;;;10868859;32;20102;-73
2023/07/28 20:30:47;;;;;;;1.90;1.30;;;27.90;75.20;;;;;;10868568;32;20020;-73
2023/07/28 20:36:50;;;;;;;2.03;1.00;;;27.80;75.30;;;;;;10868248;32;20055;-73
2023/07/28 20:42:53;;;;;;;2.03;1.25;;;27.80;75.40;;;;;;10868120;32;20097;-73
2023/07/28 20:48:56;;;;;;;1.08;0.80;;;27.70;75.70;;;;;;10867930;32;20054;-73
2023/07/28 20:54:58;;;;;;;2.65;1.00;;;27.60;75.70;;;;;;10867801;32;20012;-73
2023/07/28 21:01:01;;;;;;;2.17;1.27;;;27.50;75.90;;;;;;10867516;32;20069;-73
2023/07/28 21:07:03;;;;;;;1.35;1.00;;;27.40;76.10;;;;;;10867201;32;20330;-73
2023/07/28 21:13:14;;;;;;;3.65;1.83;;;27.40;76.20;;;;;;10528995;27;12121744;-74
2023/07/28 21:19:16;;;;;;;2.80;1.33;;;27.40;76.30;;;;;;10927102;32;20035;-73
2023/07/28 21:25:18;;;;;;;1.40;0.88;;;27.40;76.30;;;;;;10938839;32;20031;-73
2023/07/28 21:31:20;;;;;;;0.70;0.52;;;27.40;76.30;;;;;;10938148;32;20039;-73
2023/07/28 21:37:24;;;;;;;2.67;1.12;;;27.30;76.20;;;;;;10942042;32;20027;-73
2023/07/28 21:43:26;;;;;;;2.40;1.40;;;27.30;76.30;;;;;;11004447;32;20015;-73
2023/07/28 21:49:29;;;;;;;1.48;1.02;;;27.40;76.40;;;;;;11006403;32;20423;-75
2023/07/28 21:55:33;;;;;;;2.87;1.30;;;27.40;76.70;;;;;;11025121;32;20014;-75
2023/07/28 22:01:36;;;;;;;3.03;1.27;;;27.30;77.20;;;;;;11024790;32;20388;-75
2023/07/28 22:07:39;;;;;;;2.97;1.73;;;27.30;77.40;;;;;;11024595;32;20015;-75
2023/07/28 22:13:41;;;;;;;2.60;1.33;;;27.30;77.40;;;;;;11010542;32;20414;-75
2023/07/28 22:19:44;;;;;;;2.97;1.05;;;27.30;78.00;;;;;;11024193;32;20014;-75
2023/07/28 22:25:47;;;;;;;2.65;1.45;;;27.20;78.30;;;;;;11024076;32;20027;-75
2023/07/28 22:31:49;;;;;;;2.30;1.65;;;27.10;78.20;;;;;;11023711;32;20040;-75
2023/07/28 22:37:51;;;;;;;2.62;1.55;;;27.00;78.60;;;;;;11023521;32;20018;-74
2023/07/28 22:43:54;;;;;;;2.75;1.58;;;26.90;79.00;;;;;;11021751;32;20323;-75
2023/07/28 22:49:56;;;;;;;2.25;1.20;;;26.90;79.30;;;;;;11023076;32;20392;-75
2023/07/28 22:55:58;;;;;;;4.82;1.33;;;26.80;79.90;;;;;;11022950;32;20026;-74
2023/07/28 23:02:00;;;;;;;2.83;1.50;;;26.80;80.30;;;;;;11008101;32;20115;-75
2023/07/28 23:08:49;;;;;;;2.10;1.10;;;26.80;80.30;;;;;;11017760;32;20434;-73
2023/07/28 23:14:51;;;;;;;2.30;1.42;;;26.80;80.00;;;;;;11007182;32;20317;-74
2023/07/28 23:20:53;;;;;;;4.40;2.08;;;26.70;80.40;;;;;;11019058;32;20045;-74
2023/07/28 23:26:55;;;;;;;3.62;1.87;;;26.60;80.90;;;;;;11007393;32;20039;-74
2023/07/28 23:32:57;;;;;;;2.83;1.58;;;26.60;80.70;;;;;;11007477;32;20060;-75
2023/07/28 23:39:00;;;;;;;2.60;1.70;;;26.60;81.10;;;;;;11007800;32;20441;-74
2023/07/28 23:45:02;;;;;;;4.68;1.37;;;26.60;81.00;;;;;;11018137;32;20050;-75
2023/07/28 23:51:04;;;;;;;3.62;1.65;;;26.70;80.80;;;;;;11007091;32;20061;-75
2023/07/28 23:57:06;;;;;;;2.87;1.92;;;26.60;80.70;;;;;;11020816;32;20041;-75
